CMA CGM Herodote — MFEP — position and weather

sailwx.info

Track history (hours):
 
Tides and Currents Weather Stations Pressure Air Temp Water Temp Dewpoint Dewpoint Depression Visibility Wind Speed Wind Dir Waves Ship Positions

CMA CGM Herodote

Last reported at 2017-Mar-30 00:33 UTC. Time now 2017-Mar-30 00:55 UTC.
Position N 38°08' E 002°20'.

Length 170 m; draft 6 m.

Type: Cargo ship. MMSI: 235051085.

Date/timePositionNaut miles runAvg speedWind from/ knotsBaromVisibWave heightAir tempDewpointWater temp
2017-Mar-30 00:33N 38°08' E 002°20'1615.9
2017-Mar-29 23:34N 38°00' E 002°38'1615.6
2017-Mar-29 22:33N 37°52' E 002°55'1515.5
2017-Mar-29 21:33N 37°45' E 003°12'1615.7
2017-Mar-29 20:33N 37°37' E 003°29'1615.9
2017-Mar-29 19:33N 37°29' E 003°47'1915.7
2017-Mar-29 18:21N 37°19' E 004°07'1215.7
2017-Mar-29 17:34N 37°13' E 004°21'  
2017-Mar-27 00:26N 36°42' E 005°10'0 0.0
2017-Mar-26 23:17N 36°42' E 005°10'0 0.1
2017-Mar-26 22:23N 36°43' E 005°10'0 0.0
2017-Mar-26 12:26N 36°43' E 005°10'  
2017-Mar-21 05:11N 36°46' E 003°04'  
Track history (hours):
 
Tides and Currents Weather Stations Pressure Air Temp Water Temp Dewpoint Dewpoint Depression Visibility Wind Speed Wind Dir Waves Ship Positions

CMA CGM Herodote

Last reported at 2017-Mar-30 00:33 UTC. Time now 2017-Mar-30 00:55 UTC.
Position N 38°08' E 002°20'.

Length 170 m; draft 6 m.

Type: Cargo ship. MMSI: 235051085.

Date/timePositionNaut miles runAvg speedWind from/ knotsBaromVisibWave heightAir tempDewpointWater temp
2017-Mar-30 00:33N 38°08' E 002°20'1615.9
2017-Mar-29 23:34N 38°00' E 002°38'1615.6
2017-Mar-29 22:33N 37°52' E 002°55'1515.5
2017-Mar-29 21:33N 37°45' E 003°12'1615.7
2017-Mar-29 20:33N 37°37' E 003°29'1615.9
2017-Mar-29 19:33N 37°29' E 003°47'1915.7
2017-Mar-29 18:21N 37°19' E 004°07'1215.7
2017-Mar-29 17:34N 37°13' E 004°21'  
2017-Mar-27 00:26N 36°42' E 005°10'0 0.0
2017-Mar-26 23:17N 36°42' E 005°10'0 0.1
2017-Mar-26 22:23N 36°43' E 005°10'0 0.0
2017-Mar-26 12:26N 36°43' E 005°10'  
2017-Mar-21 05:11N 36°46' E 003°04'  

Dump ship's entire track history